Airfield :
LOGIN :

Register | Disclaimer

   EN    FR    IT 

 










Legend :    VFR   Marginal VFR   IFR   Intensive IFR   Very Intensive IFR
Visi :
Ceiling :
>= 8 km
>= 3000ft
5 to 8 km
1000 to 3000 ft
1500m to 5 km
500 to 1000 ft
800 to 1500m
200 to 500 ft
< 800m
< 200 ft
Symbols :   Thunderstorms  Fog  Heavy snow  Heavy precipitations  Wind > 20 kt
SIGMETs :     Misc.  Thunderstorms  Icing  Turbulence  Mountain Waves  Volcanic Ashes






- Airport Elevation : 289 ft
- IATA code : ZAD


LDZD - Zadar

CURRENT METAR :
  • 032230Z 27014KT 210V320 6000 TSRA FEW020 SCT030CB BKN050 20/19 Q1004

EXPIRED METARs :
  • 032200Z 26004G23KT 210V300 9999 VCTS FEW033CB SCT050 22/21 Q1005
  • 032130Z 35003KT 280V040 9999 FEW040 SCT060 22/21 Q1003
  • 032100Z 01004KT 290V070 9999 FEW040 SCT060 21/20 Q1003 BECMG 30015KT TSRA SCT030CB
  • 032030Z 01007KT 340V040 9999 FEW040 SCT060 21/21 Q1004 NOSIG
  • 032000Z 36007KT 320V040 9999 TS FEW030CB SCT050 21/20 Q1004 TEMPO 27020KT -TSRA

TAF TAF LDZD
Valid from the 03 at 18:00 until the 04 at 18:00 UTC


031725Z 0318/0418 15018KT CAVOK TX27/0413Z TN20/0402Z
PROB30
TEMPO 0318/0400 31018G30KT 3000 TSRA FEW030CB SCT050
BECMG 0320/0322 VRB02KT
PROB30
TEMPO 0405/0418 TSRA FEW030CB SCT035
BECMG 0406/0408 15012KT



MET'MAP, your aeronautical weather chart ! - Copyright ORBIFLY December 2007 - Disclaimer

ORBIFLY MET'MAP TEAM :

Programming & Development : Alexandra Zaïnal
Concept & original design : Baudouin d'Aumeries
Assistance for programming : Marc-Olivier Méhu
Technical & hardware support : Manuel Goepfert

Contact : metmap@orbifly.com




SOURCES & CREDITS :

   NOAA